createdAt,value
2022-08-19T00:01:30.788Z,2.75
2022-08-19T00:03:59.443Z,3.00
2022-08-19T00:06:27.249Z,3.30
2022-08-19T00:08:54.280Z,3.28
2022-08-19T00:11:25.568Z,3.45
2022-08-19T00:13:53.968Z,3.70
2022-08-19T00:16:25.194Z,4.05
2022-08-19T00:18:54.197Z,4.10
2022-08-19T00:21:21.272Z,3.50
2022-08-19T00:23:48.304Z,3.80
2022-08-19T00:26:15.802Z,3.97
2022-08-19T00:28:43.048Z,3.97
2022-08-19T00:31:11.064Z,3.92
2022-08-19T00:33:38.290Z,3.70
2022-08-19T00:36:07.150Z,3.83
2022-08-19T00:38:37.580Z,3.60
2022-08-19T00:41:06.247Z,3.88
2022-08-19T00:43:33.518Z,3.83
2022-08-19T00:46:02.524Z,3.35
2022-08-19T00:48:30.032Z,3.00
2022-08-19T00:50:57.647Z,2.50
2022-08-19T00:53:27.251Z,2.35
2022-08-19T00:55:56.946Z,2.20
2022-08-19T00:58:26.114Z,2.28
2022-08-19T01:00:53.135Z,2.38
2022-08-19T01:03:21.775Z,2.67
2022-08-19T01:05:50.432Z,2.40
2022-08-19T01:08:19.157Z,2.65
2022-08-19T01:10:52.546Z,2.63
2022-08-19T01:13:22.197Z,2.65
2022-08-19T01:15:55.375Z,2.53
2022-08-19T01:20:49.666Z,3.33
2022-08-19T01:23:17.167Z,3.15
2022-08-19T01:25:46.515Z,3.72
2022-08-19T01:28:39.056Z,3.38
2022-08-19T01:31:27.280Z,3.40
2022-08-19T01:33:57.574Z,4.32
2022-08-19T01:36:38.929Z,3.63
2022-08-19T01:39:07.479Z,3.92
2022-08-19T01:41:34.951Z,4.70
2022-08-19T01:44:13.474Z,3.50
2022-08-19T01:46:48.430Z,4.00
2022-08-19T01:49:16.771Z,3.22
2022-08-19T01:51:44.597Z,3.35
2022-08-19T01:54:13.023Z,3.58
2022-08-19T01:56:41.814Z,3.15
2022-08-19T01:59:12.452Z,3.90
2022-08-19T02:01:39.539Z,3.42
2022-08-19T02:04:06.955Z,3.65
2022-08-19T02:06:34.080Z,3.40
2022-08-19T02:09:01.174Z,3.40
2022-08-19T02:11:38.866Z,3.38
2022-08-19T02:14:07.935Z,3.60
2022-08-19T02:16:36.019Z,3.45
2022-08-19T02:19:03.469Z,3.40
2022-08-19T02:21:31.437Z,3.30
2022-08-19T02:23:59.291Z,3.47
2022-08-19T02:26:30.095Z,3.35
2022-08-19T02:28:58.422Z,3.78
2022-08-19T02:31:29.086Z,2.75
2022-08-19T02:33:57.440Z,3.30
2022-08-19T02:36:25.217Z,3.33
2022-08-19T02:38:55.155Z,3.75
2022-08-19T02:41:26.553Z,3.78
2022-08-19T02:44:28.743Z,3.90
2022-08-19T02:46:41.439Z,4.00
2022-08-19T02:49:09.838Z,4.55
2022-08-19T02:51:39.639Z,3.97
2022-08-19T02:54:07.568Z,4.30
2022-08-19T02:56:36.508Z,5.43
2022-08-19T02:59:04.471Z,4.88
2022-08-19T03:01:33.308Z,4.95
2022-08-19T03:04:01.290Z,4.68
2022-08-19T03:06:29.862Z,4.25
2022-08-19T03:08:57.569Z,4.15
2022-08-19T03:11:26.034Z,3.85
2022-08-19T03:13:54.637Z,4.20
2022-08-19T03:16:22.918Z,4.47
2022-08-19T03:18:50.371Z,4.18
2022-08-19T03:21:25.238Z,4.30
2022-08-19T03:23:55.740Z,3.33
2022-08-19T03:26:22.904Z,3.35
2022-08-19T03:28:57.701Z,3.50
2022-08-19T03:31:44.283Z,4.38
2022-08-19T03:34:16.350Z,3.85
2022-08-19T03:36:43.505Z,4.25
2022-08-19T03:39:11.258Z,4.35
2022-08-19T03:41:44.663Z,4.88
2022-08-19T03:44:18.057Z,4.10
2022-08-19T03:46:46.574Z,4.10
2022-08-19T03:49:14.710Z,4.28
2022-08-19T03:51:42.965Z,4.88
2022-08-19T03:54:11.362Z,4.60
2022-08-19T03:56:39.164Z,6.05
2022-08-19T03:59:08.060Z,5.05
2022-08-19T04:01:36.618Z,4.60
2022-08-19T04:04:05.028Z,6.82
2022-08-19T04:06:38.850Z,7.88
2022-08-19T04:09:09.311Z,7.13
2022-08-19T04:11:44.601Z,7.45
2022-08-19T04:14:17.086Z,7.35
2022-08-19T04:16:45.739Z,8.90
2022-08-19T04:19:13.214Z,7.43
2022-08-19T04:21:40.984Z,8.32
2022-08-19T04:24:08.720Z,7.95
2022-08-19T04:26:37.757Z,7.15
2022-08-19T04:29:12.767Z,6.65
2022-08-19T04:31:41.264Z,6.88
2022-08-19T04:34:11.846Z,6.50
2022-08-19T04:36:40.558Z,7.75
2022-08-19T04:39:09.164Z,6.22
2022-08-19T04:41:55.305Z,6.65
2022-08-19T04:44:22.827Z,6.93
2022-08-19T04:46:51.841Z,6.00
2022-08-19T04:49:23.488Z,6.55
2022-08-19T04:51:52.308Z,6.38
2022-08-19T04:54:37.813Z,6.15
2022-08-19T04:57:08.153Z,6.90
2022-08-19T04:59:36.073Z,7.20
2022-08-19T05:02:03.366Z,6.80
2022-08-19T05:04:33.096Z,6.75
2022-08-19T05:07:02.362Z,7.05
2022-08-19T05:09:42.134Z,6.75
2022-08-19T05:12:19.015Z,7.80
2022-08-19T05:14:48.300Z,6.85
2022-08-19T05:17:37.472Z,6.80
2022-08-19T05:20:23.745Z,6.20
2022-08-19T05:22:52.025Z,5.97
2022-08-19T05:25:21.107Z,6.20
2022-08-19T05:27:48.967Z,6.13
2022-08-19T05:30:16.037Z,6.93
2022-08-19T05:32:43.505Z,7.22
2022-08-19T05:35:10.884Z,6.97
2022-08-19T05:37:41.338Z,7.63
2022-08-19T05:40:09.289Z,7.45
2022-08-19T05:42:36.416Z,8.68
2022-08-19T05:45:04.107Z,8.98
2022-08-19T05:47:31.596Z,10.50
2022-08-19T05:50:00.178Z,10.00
2022-08-19T05:52:29.030Z,9.32
2022-08-19T05:54:57.952Z,10.73
2022-08-19T05:57:26.005Z,11.82
2022-08-19T05:59:58.546Z,12.05
2022-08-19T06:02:27.143Z,11.75
2022-08-19T06:04:54.530Z,11.07
2022-08-19T06:07:21.700Z,13.35
2022-08-19T06:09:54.428Z,11.55
2022-08-19T06:12:32.877Z,14.57
2022-08-19T06:15:00.933Z,14.40
2022-08-19T06:17:28.433Z,15.63
2022-08-19T06:19:55.976Z,19.15
2022-08-19T06:22:23.126Z,21.50
2022-08-19T06:24:53.830Z,25.00
2022-08-19T06:27:21.180Z,22.80
2022-08-19T06:29:48.442Z,29.85
2022-08-19T06:32:17.449Z,32.25
2022-08-19T06:34:45.223Z,33.40
2022-08-19T06:37:12.961Z,33.20
2022-08-19T06:39:41.421Z,33.50
2022-08-19T06:42:12.233Z,33.95
2022-08-19T06:44:42.558Z,33.53
2022-08-19T06:47:14.342Z,34.67
2022-08-19T06:49:42.295Z,33.30
2022-08-19T06:52:10.529Z,36.00
2022-08-19T06:54:53.708Z,33.78
2022-08-19T06:57:23.953Z,31.77
2022-08-19T06:59:51.171Z,31.63
2022-08-19T07:02:22.134Z,31.38
2022-08-19T07:04:52.688Z,31.70
2022-08-19T07:07:21.275Z,31.30
2022-08-19T07:09:52.240Z,30.35
2022-08-19T07:12:35.646Z,32.35
2022-08-19T07:15:05.020Z,31.30
2022-08-19T07:17:34.690Z,31.70
2022-08-19T07:20:06.803Z,32.05
2022-08-19T07:22:36.820Z,31.00
2022-08-19T07:25:05.069Z,30.63
2022-08-19T07:27:33.720Z,31.75
2022-08-19T07:30:02.058Z,32.65
2022-08-19T07:32:32.453Z,30.70
2022-08-19T07:35:01.609Z,30.60
2022-08-19T07:37:33.119Z,30.25
2022-08-19T07:40:01.945Z,29.75
2022-08-19T07:42:30.697Z,29.45
2022-08-19T07:44:58.089Z,28.85
2022-08-19T07:47:49.617Z,24.67
2022-08-19T07:50:12.955Z,28.90
2022-08-19T07:52:40.936Z,28.20
2022-08-19T07:55:39.880Z,27.98
2022-08-19T07:57:56.947Z,27.48
2022-08-19T08:00:24.695Z,27.73
2022-08-19T08:02:52.204Z,28.38
2022-08-19T08:05:44.868Z,28.73
2022-08-19T08:08:31.447Z,24.90
2022-08-19T08:10:59.327Z,26.20
2022-08-19T08:13:27.982Z,25.27
2022-08-19T08:15:56.023Z,23.95
2022-08-19T08:18:28.158Z,23.08
2022-08-19T08:20:58.239Z,24.80
2022-08-19T08:23:26.796Z,24.00
2022-08-19T08:25:55.924Z,20.65
2022-08-19T08:28:24.418Z,20.90
2022-08-19T08:30:52.925Z,20.52
2022-08-19T08:33:30.001Z,20.17
2022-08-19T08:36:03.917Z,20.27
2022-08-19T08:38:38.902Z,20.48
2022-08-19T08:41:23.845Z,18.38
2022-08-19T08:43:53.291Z,18.40
2022-08-19T08:46:53.240Z,18.38
2022-08-19T08:49:42.667Z,18.33
2022-08-19T08:52:33.279Z,17.88
2022-08-19T08:55:03.177Z,17.85
2022-08-19T08:57:55.943Z,17.77
2022-08-19T09:00:34.797Z,17.60
2022-08-19T09:03:02.834Z,16.25
2022-08-19T09:05:48.611Z,17.25
2022-08-19T09:08:25.131Z,17.10
2022-08-19T09:10:55.715Z,16.00
2022-08-19T09:13:59.150Z,15.57
2022-08-19T09:16:28.720Z,14.80
2022-08-19T09:19:07.974Z,15.02
2022-08-19T09:21:36.222Z,13.95
2022-08-19T09:24:04.951Z,13.98
2022-08-19T09:26:47.637Z,14.20
2022-08-19T09:29:21.015Z,13.18
2022-08-19T09:31:50.780Z,12.98
2022-08-19T09:34:21.367Z,12.85
2022-08-19T09:36:53.291Z,13.00
2022-08-19T09:39:21.821Z,13.00
2022-08-19T09:41:50.622Z,12.18
2022-08-19T09:44:18.910Z,13.65
2022-08-19T09:46:48.250Z,11.75
2022-08-19T09:49:16.950Z,12.32
2022-08-19T09:51:50.835Z,11.65
2022-08-19T09:54:23.443Z,11.90
2022-08-19T09:56:54.987Z,12.07
2022-08-19T09:59:22.776Z,13.10
2022-08-19T10:01:50.208Z,12.88
2022-08-19T10:04:20.396Z,11.95
2022-08-19T10:06:51.835Z,13.35
2022-08-19T10:09:33.720Z,12.90
2022-08-19T10:12:03.095Z,12.30
2022-08-19T10:14:30.769Z,12.35
2022-08-19T10:16:59.285Z,13.40
2022-08-19T10:19:26.913Z,13.63
2022-08-19T10:21:55.685Z,14.25
2022-08-19T10:24:29.307Z,14.13
2022-08-19T10:26:59.022Z,13.93
2022-08-19T10:29:32.273Z,14.25
2022-08-19T10:32:02.593Z,14.77
2022-08-19T10:34:31.015Z,15.52
2022-08-19T10:37:02.072Z,14.93
2022-08-19T10:39:43.114Z,15.90
2022-08-19T10:42:14.742Z,17.95
2022-08-19T10:44:45.125Z,17.15
2022-08-19T10:47:17.596Z,18.30
2022-08-19T10:50:12.262Z,20.35
2022-08-19T10:52:48.950Z,19.25
2022-08-19T10:55:36.519Z,19.83
2022-08-19T10:58:04.160Z,20.63
2022-08-19T11:00:32.632Z,21.13
2022-08-19T11:02:59.893Z,20.20
2022-08-19T11:05:27.240Z,21.35
2022-08-19T11:07:54.690Z,21.42
2022-08-19T11:10:23.056Z,19.50
2022-08-19T11:12:54.231Z,20.45
2022-08-19T11:15:22.021Z,19.98
2022-08-19T11:17:49.436Z,22.48
2022-08-19T11:20:17.199Z,21.70
2022-08-19T11:22:44.638Z,22.13
2022-08-19T11:25:12.938Z,22.33
2022-08-19T11:27:44.397Z,22.13
2022-08-19T11:30:13.515Z,21.75
2022-08-19T11:32:44.678Z,21.77
2022-08-19T11:35:17.230Z,22.77
2022-08-19T11:37:44.465Z,22.67
2022-08-19T11:40:12.515Z,22.15
2022-08-19T11:42:58.117Z,22.23
2022-08-19T11:45:26.255Z,21.98
2022-08-19T11:47:54.011Z,22.02
2022-08-19T11:50:21.434Z,21.45
2022-08-19T11:52:50.702Z,22.60
2022-08-19T11:55:18.400Z,20.45
2022-08-19T11:57:46.149Z,22.15
2022-08-19T12:00:14.294Z,20.80
2022-08-19T12:02:41.975Z,22.13
2022-08-19T12:05:12.209Z,21.40
2022-08-19T12:07:41.191Z,21.10
2022-08-19T12:10:09.422Z,20.33
2022-08-19T12:12:43.263Z,19.95
2022-08-19T12:15:12.035Z,19.70
2022-08-19T12:17:39.316Z,19.52
2022-08-19T12:20:07.903Z,19.85
2022-08-19T12:22:36.285Z,17.90
2022-08-19T12:25:03.557Z,20.25
2022-08-19T12:27:40.441Z,20.27
2022-08-19T12:30:10.614Z,18.75
2022-08-19T12:32:38.584Z,16.75
2022-08-19T12:35:07.121Z,17.25
2022-08-19T12:37:34.536Z,15.77
2022-08-19T12:40:02.086Z,15.93
2022-08-19T12:42:30.771Z,14.98
2022-08-19T12:44:57.905Z,14.82
2022-08-19T12:47:27.732Z,13.88
2022-08-19T12:49:55.987Z,13.70
2022-08-19T12:52:28.154Z,13.60
2022-08-19T12:54:57.370Z,14.70
2022-08-19T12:57:32.561Z,13.35
2022-08-19T13:00:01.827Z,12.38
2022-08-19T13:02:33.100Z,11.25
2022-08-19T13:05:07.671Z,10.80
2022-08-19T13:07:34.873Z,9.65
2022-08-19T13:10:02.932Z,8.80
2022-08-19T13:12:30.493Z,8.70
2022-08-19T13:14:57.624Z,9.57
2022-08-19T13:17:26.833Z,8.88
2022-08-19T13:19:54.447Z,7.57
2022-08-19T13:22:21.834Z,9.18
2022-08-19T13:24:49.818Z,8.90
2022-08-19T13:27:17.273Z,10.38
2022-08-19T13:30:03.039Z,10.18
2022-08-19T13:32:50.117Z,9.90
2022-08-19T13:35:17.675Z,10.13
2022-08-19T13:37:46.486Z,10.30
2022-08-19T13:40:19.663Z,9.57
2022-08-19T13:42:48.636Z,9.10
2022-08-19T13:45:18.766Z,9.13
2022-08-19T13:47:47.958Z,8.90
2022-08-19T13:50:18.535Z,9.15
2022-08-19T13:52:46.114Z,10.45
2022-08-19T13:55:13.933Z,13.10
2022-08-19T13:57:41.550Z,14.32
2022-08-19T14:00:13.963Z,12.05
2022-08-19T14:02:41.989Z,15.20
2022-08-19T14:05:12.207Z,12.63
2022-08-19T14:07:39.787Z,12.57
2022-08-19T14:10:08.429Z,13.02
2022-08-19T14:12:35.919Z,11.80
2022-08-19T14:15:03.962Z,11.40
2022-08-19T14:17:31.488Z,11.63
2022-08-19T14:19:59.446Z,10.55
2022-08-19T14:22:31.690Z,10.25
2022-08-19T14:24:59.763Z,10.50
2022-08-19T14:27:27.128Z,10.02
2022-08-19T14:29:54.990Z,9.80
2022-08-19T14:32:22.567Z,9.13
2022-08-19T14:34:49.688Z,11.02
2022-08-19T14:37:16.878Z,10.35
2022-08-19T14:39:47.191Z,11.50
2022-08-19T14:42:15.958Z,10.82
2022-08-19T14:44:43.740Z,9.95
2022-08-19T14:47:11.351Z,9.35
2022-08-19T14:49:43.123Z,10.80
2022-08-19T14:52:14.026Z,9.30
2022-08-19T14:54:41.130Z,7.88
2022-08-19T14:57:08.386Z,7.60
2022-08-19T14:59:36.912Z,7.07
2022-08-19T15:02:33.780Z,6.75
2022-08-19T15:04:58.363Z,7.13
2022-08-19T15:07:29.182Z,6.50
2022-08-19T15:09:57.491Z,6.43
2022-08-19T15:12:24.906Z,7.72
2022-08-19T15:14:56.254Z,6.28
2022-08-19T15:17:43.427Z,7.00
2022-08-19T15:20:15.890Z,5.63
2022-08-19T15:22:43.301Z,5.47
2022-08-19T15:25:11.973Z,5.25
2022-08-19T15:27:40.036Z,5.70
2022-08-19T15:30:09.075Z,5.07
2022-08-19T15:32:37.617Z,5.13
2022-08-19T15:35:05.948Z,5.10
2022-08-19T15:37:37.411Z,5.32
2022-08-19T15:40:06.633Z,5.40
2022-08-19T15:42:34.281Z,5.68
2022-08-19T15:45:02.537Z,5.70
2022-08-19T15:47:34.720Z,5.68
2022-08-19T15:50:15.928Z,5.68
2022-08-19T15:52:51.377Z,5.82
2022-08-19T15:55:33.751Z,6.10
2022-08-19T16:01:15.516Z,6.45
2022-08-19T16:04:01.927Z,6.90
2022-08-19T16:06:29.664Z,7.25
2022-08-19T16:08:58.554Z,6.68
2022-08-19T16:11:29.412Z,8.23
2022-08-19T16:13:57.807Z,7.40
2022-08-19T16:16:31.040Z,8.50
2022-08-19T16:19:02.523Z,8.75
2022-08-19T16:21:34.184Z,8.63
2022-08-19T16:24:02.958Z,9.25
2022-08-19T16:26:31.699Z,10.05
2022-08-19T16:29:02.826Z,10.18
2022-08-19T16:31:36.900Z,10.68
2022-08-19T16:34:04.969Z,10.95
2022-08-19T16:36:33.808Z,10.38
2022-08-19T16:39:01.322Z,11.13
2022-08-19T16:41:29.403Z,11.55
2022-08-19T16:43:56.526Z,11.95
2022-08-19T16:46:26.866Z,11.60
2022-08-19T16:48:54.630Z,10.85
2022-08-19T16:51:23.122Z,12.30
2022-08-19T16:53:53.328Z,11.73
2022-08-19T16:56:21.892Z,12.73
2022-08-19T16:58:50.459Z,14.35
2022-08-19T17:01:18.121Z,12.20
2022-08-19T17:03:45.573Z,11.88
2022-08-19T17:06:20.834Z,9.02
2022-08-19T17:08:49.905Z,9.20
2022-08-19T17:11:19.127Z,11.55
2022-08-19T17:13:48.111Z,9.18
2022-08-19T17:16:16.533Z,8.65
2022-08-19T17:18:43.668Z,9.25
2022-08-19T17:21:12.878Z,10.18
2022-08-19T17:23:43.534Z,11.02
2022-08-19T17:26:15.906Z,11.60
2022-08-19T17:28:48.971Z,13.13
2022-08-19T17:31:16.548Z,13.48
2022-08-19T17:33:48.040Z,12.32
2022-08-19T17:36:18.924Z,14.40
2022-08-19T17:38:46.896Z,12.35
2022-08-19T17:41:14.657Z,13.07
2022-08-19T17:43:44.261Z,12.88
2022-08-19T17:46:17.915Z,11.40
2022-08-19T17:48:52.092Z,12.73
2022-08-19T17:51:35.899Z,11.77
2022-08-19T17:54:05.523Z,13.05
2022-08-19T17:56:32.961Z,13.05
2022-08-19T17:59:01.628Z,13.30
2022-08-19T18:01:52.488Z,11.55
2022-08-19T18:04:18.603Z,11.27
2022-08-19T18:06:52.753Z,11.38
2022-08-19T18:09:23.958Z,12.65
2022-08-19T18:11:53.161Z,11.55
2022-08-19T18:14:32.256Z,11.38
2022-08-19T18:17:02.802Z,12.82
2022-08-19T18:19:41.337Z,13.88
2022-08-19T18:22:12.514Z,11.48
2022-08-19T18:24:40.655Z,12.05
2022-08-19T18:27:08.008Z,13.95
2022-08-19T18:29:37.977Z,12.32
2022-08-19T18:32:06.589Z,12.25
2022-08-19T18:34:36.759Z,12.73
2022-08-19T18:37:05.942Z,12.30
2022-08-19T18:39:51.998Z,12.38
2022-08-19T18:42:38.439Z,13.55
2022-08-19T18:45:25.259Z,12.00
2022-08-19T18:48:26.962Z,13.43
2022-08-19T18:50:56.406Z,9.60
2022-08-19T18:53:23.630Z,12.10
2022-08-19T18:55:54.461Z,10.57
2022-08-19T18:58:26.586Z,10.70
2022-08-19T19:00:57.454Z,13.20
2022-08-19T19:03:25.885Z,12.73
2022-08-19T19:05:52.927Z,14.32
2022-08-19T19:08:20.254Z,13.70
2022-08-19T19:10:54.872Z,14.95
2022-08-19T19:13:21.954Z,13.73
2022-08-19T19:15:49.184Z,14.18
2022-08-19T19:18:16.344Z,12.50
2022-08-19T19:20:43.717Z,14.30
2022-08-19T19:23:10.954Z,8.75
2022-08-19T19:25:50.130Z,8.15
2022-08-19T19:28:25.394Z,9.52
2022-08-19T19:30:54.165Z,7.95
2022-08-19T19:33:21.591Z,8.18
2022-08-19T19:35:49.039Z,5.60
2022-08-19T19:38:16.232Z,6.13
2022-08-19T19:40:43.554Z,8.38
2022-08-19T19:43:11.107Z,6.65
2022-08-19T19:45:38.406Z,6.93
2022-08-19T19:48:10.225Z,6.82
2022-08-19T19:50:37.467Z,7.15
2022-08-19T19:53:04.832Z,6.85
2022-08-19T19:55:33.425Z,5.32
2022-08-19T19:58:00.543Z,5.30
2022-08-19T20:00:27.820Z,5.78
2022-08-19T20:02:57.243Z,6.72
2022-08-19T20:05:24.475Z,6.68
2022-08-19T20:08:11.511Z,6.72
2022-08-19T20:10:39.318Z,5.95
2022-08-19T20:13:06.712Z,7.07
2022-08-19T20:15:36.143Z,8.43
2022-08-19T20:18:06.615Z,5.85
2022-08-19T20:20:34.916Z,8.07
2022-08-19T20:23:02.433Z,8.30
2022-08-19T20:25:31.460Z,7.10
2022-08-19T20:28:01.092Z,7.90
2022-08-19T20:30:28.877Z,8.90
2022-08-19T20:33:00.308Z,8.93
2022-08-19T20:35:27.503Z,7.68
2022-08-19T20:37:58.107Z,8.23
2022-08-19T20:40:26.973Z,8.38
2022-08-19T20:42:54.944Z,7.25
2022-08-19T20:45:32.186Z,9.15
2022-08-19T20:48:02.209Z,10.18
2022-08-19T20:50:30.116Z,10.02
2022-08-19T20:52:58.087Z,12.77
2022-08-19T20:55:26.484Z,9.57
2022-08-19T20:57:54.495Z,12.48
2022-08-19T21:00:21.847Z,12.50
2022-08-19T21:02:49.455Z,8.00
2022-08-19T21:05:16.907Z,12.18
2022-08-19T21:07:44.359Z,12.32
2022-08-19T21:10:11.864Z,10.75
2022-08-19T21:12:39.082Z,11.77
2022-08-19T21:15:07.367Z,11.45
2022-08-19T21:17:34.826Z,10.25
2022-08-19T21:20:02.262Z,12.13
2022-08-19T21:22:29.697Z,10.38
2022-08-19T21:24:57.482Z,12.32
2022-08-19T21:27:24.848Z,11.23
2022-08-19T21:29:53.062Z,13.05
2022-08-19T21:32:20.396Z,13.05
2022-08-19T21:34:47.590Z,11.95
2022-08-19T21:37:19.962Z,10.32
2022-08-19T21:39:54.299Z,12.45
2022-08-19T21:42:22.257Z,12.85
2022-08-19T21:44:49.614Z,12.73
2022-08-19T21:47:16.795Z,11.25
2022-08-19T21:49:44.058Z,11.52
2022-08-19T21:52:11.260Z,10.68
2022-08-19T21:54:38.886Z,12.55
2022-08-19T21:57:10.040Z,9.63
2022-08-19T21:59:43.738Z,11.77
2022-08-19T22:02:20.269Z,12.43
2022-08-19T22:04:48.138Z,10.35
2022-08-19T22:07:15.612Z,12.95
2022-08-19T22:09:43.280Z,11.38
2022-08-19T22:12:11.426Z,12.30
2022-08-19T22:14:39.211Z,13.80
2022-08-19T22:17:06.430Z,14.30
2022-08-19T22:19:33.502Z,13.48
2022-08-19T22:22:02.090Z,12.88
2022-08-19T22:24:29.340Z,12.77
2022-08-19T22:26:56.374Z,13.77
2022-08-19T22:29:33.745Z,14.13
2022-08-19T22:32:23.000Z,13.52
2022-08-19T22:34:49.192Z,14.60
2022-08-19T22:37:16.452Z,14.00
2022-08-19T22:39:43.574Z,11.60
2022-08-19T22:42:11.652Z,12.95
2022-08-19T22:44:39.215Z,16.35
2022-08-19T22:47:06.297Z,14.93
2022-08-19T22:49:33.494Z,16.15
2022-08-19T22:52:17.763Z,15.40
2022-08-19T22:54:49.414Z,12.75
2022-08-19T22:57:19.455Z,16.70
2022-08-19T22:59:51.266Z,17.98
2022-08-19T23:02:26.401Z,13.70
2022-08-19T23:04:53.574Z,14.50
2022-08-19T23:07:23.664Z,13.82
2022-08-19T23:09:51.590Z,14.70
2022-08-19T23:12:27.269Z,17.42
2022-08-19T23:14:54.447Z,14.35
2022-08-19T23:17:22.178Z,12.93
2022-08-19T23:19:50.811Z,14.68
2022-08-19T23:22:18.403Z,14.13
2022-08-19T23:24:45.733Z,15.70
2022-08-19T23:27:31.922Z,13.95
2022-08-19T23:30:17.684Z,15.18
2022-08-19T23:32:46.199Z,17.30
2022-08-19T23:35:13.379Z,14.38
2022-08-19T23:37:40.708Z,15.15
2022-08-19T23:40:08.763Z,16.30
2022-08-19T23:42:36.279Z,16.38
2022-08-19T23:45:05.323Z,16.73
2022-08-19T23:47:34.007Z,12.82
2022-08-19T23:50:06.483Z,13.73
2022-08-19T23:52:45.209Z,15.48
2022-08-19T23:55:12.987Z,13.70
2022-08-19T23:57:40.131Z,17.13
